createdAt,value
2023-01-29T00:00:22.230Z,77.53
2023-01-29T00:02:48.733Z,77.62
2023-01-29T00:05:26.885Z,77.70
2023-01-29T00:07:53.964Z,77.42
2023-01-29T00:10:20.386Z,77.55
2023-01-29T00:12:46.765Z,77.51
2023-01-29T00:15:13.186Z,77.71
2023-01-29T00:17:39.543Z,77.25
2023-01-29T00:20:06.502Z,77.35
2023-01-29T00:22:32.864Z,77.46
2023-01-29T00:24:59.395Z,77.63
2023-01-29T00:27:25.796Z,77.46
2023-01-29T00:30:11.845Z,77.98
2023-01-29T00:32:39.589Z,77.72
2023-01-29T00:35:07.385Z,77.79
2023-01-29T00:37:33.798Z,77.60
2023-01-29T00:40:00.364Z,77.88
2023-01-29T00:42:45.191Z,77.75
2023-01-29T00:45:12.684Z,78.07
2023-01-29T00:47:39.103Z,77.60
2023-01-29T00:50:09.437Z,77.51
2023-01-29T00:52:36.752Z,78.22
2023-01-29T00:55:04.952Z,77.63
2023-01-29T00:57:33.562Z,77.79
2023-01-29T01:00:00.410Z,77.54
2023-01-29T01:02:46.185Z,77.72
2023-01-29T01:05:19.291Z,77.97
2023-01-29T01:07:52.945Z,78.22
2023-01-29T01:10:39.566Z,77.64
2023-01-29T01:13:07.182Z,77.71
2023-01-29T01:15:40.091Z,77.84
2023-01-29T01:18:06.907Z,77.65
2023-01-29T01:20:35.638Z,77.74
2023-01-29T01:23:02.363Z,77.88
2023-01-29T01:25:28.880Z,77.78
2023-01-29T01:27:56.988Z,77.85
2023-01-29T01:30:24.210Z,77.55
2023-01-29T01:32:50.783Z,78.06
2023-01-29T01:35:17.401Z,78.21
2023-01-29T01:37:43.819Z,77.35
2023-01-29T01:40:18.239Z,77.85
2023-01-29T01:42:49.301Z,78.06
2023-01-29T01:45:35.805Z,77.73
2023-01-29T01:48:21.009Z,77.94
2023-01-29T01:50:59.582Z,77.94
2023-01-29T01:53:34.353Z,78.12
2023-01-29T01:56:06.613Z,77.88
2023-01-29T01:58:40.891Z,77.53
2023-01-29T02:01:09.221Z,77.99
2023-01-29T02:04:06.415Z,77.79
2023-01-29T02:06:53.751Z,77.91
2023-01-29T02:09:34.818Z,78.05
2023-01-29T02:12:04.134Z,77.91
2023-01-29T02:14:31.941Z,77.82
2023-01-29T02:17:01.396Z,78.08
2023-01-29T02:19:58.275Z,77.84
2023-01-29T02:22:35.725Z,78.13
2023-01-29T02:25:16.091Z,77.98
2023-01-29T02:27:48.625Z,78.28
2023-01-29T02:30:30.744Z,77.69
2023-01-29T02:33:07.522Z,77.67
2023-01-29T02:35:46.131Z,77.88
2023-01-29T02:38:31.800Z,78.06
2023-01-29T02:41:07.990Z,78.18
2023-01-29T02:43:47.898Z,78.51
2023-01-29T02:46:39.711Z,78.55
2023-01-29T02:49:34.872Z,78.20
2023-01-29T02:52:16.929Z,78.44
2023-01-29T02:55:10.493Z,78.37
2023-01-29T02:57:43.639Z,78.34
2023-01-29T03:00:21.099Z,78.62
2023-01-29T03:03:41.774Z,78.22
2023-01-29T03:06:22.791Z,78.47
2023-01-29T03:08:56.356Z,78.54
2023-01-29T03:11:22.965Z,78.59
2023-01-29T03:13:58.440Z,78.62
2023-01-29T03:16:42.902Z,78.66
2023-01-29T03:19:39.673Z,78.21
2023-01-29T03:22:08.951Z,78.42
2023-01-29T03:24:58.963Z,78.73
2023-01-29T03:27:48.245Z,78.04
2023-01-29T03:30:36.959Z,78.28
2023-01-29T03:33:09.065Z,78.46
2023-01-29T03:35:41.832Z,78.65
2023-01-29T03:38:11.363Z,78.67
2023-01-29T03:40:49.346Z,78.29
2023-01-29T03:43:35.509Z,78.61
2023-01-29T03:46:10.352Z,78.40
2023-01-29T03:48:43.940Z,78.92
2023-01-29T03:51:12.980Z,78.69
2023-01-29T03:53:54.698Z,78.65
2023-01-29T03:56:33.948Z,78.59
2023-01-29T03:59:41.092Z,79.12
2023-01-29T04:02:18.020Z,78.62
2023-01-29T04:04:46.953Z,79.01
2023-01-29T04:07:17.562Z,78.66
2023-01-29T04:09:48.700Z,78.83
2023-01-29T04:12:20.412Z,79.04
2023-01-29T04:14:49.684Z,78.96
2023-01-29T04:17:21.505Z,79.08
2023-01-29T04:19:47.972Z,78.70
2023-01-29T04:22:22.556Z,79.01
2023-01-29T04:24:50.852Z,79.03
2023-01-29T04:27:29.758Z,79.38
2023-01-29T04:30:26.968Z,78.98
2023-01-29T04:33:18.069Z,79.01
2023-01-29T04:36:00.049Z,78.28
2023-01-29T04:38:50.864Z,78.48
2023-01-29T04:41:28.297Z,78.24
2023-01-29T04:44:10.844Z,78.91
2023-01-29T04:46:46.366Z,78.35
2023-01-29T04:49:31.302Z,78.76
2023-01-29T04:52:09.009Z,78.43
2023-01-29T04:54:43.477Z,78.67
2023-01-29T04:57:34.546Z,78.68
2023-01-29T05:00:08.494Z,78.12
2023-01-29T05:02:39.309Z,78.20
2023-01-29T05:05:07.736Z,78.52
2023-01-29T05:07:37.065Z,78.51
2023-01-29T05:10:08.412Z,78.13
2023-01-29T05:12:37.163Z,78.49
2023-01-29T05:15:09.076Z,78.52
2023-01-29T05:17:35.526Z,78.23
2023-01-29T05:20:01.956Z,78.06
2023-01-29T05:22:29.344Z,77.71
2023-01-29T05:24:55.735Z,78.38
2023-01-29T05:27:50.740Z,77.85
2023-01-29T05:30:17.574Z,77.71
2023-01-29T05:32:44.086Z,77.79
2023-01-29T05:35:10.615Z,77.54
2023-01-29T05:37:37.070Z,77.66
2023-01-29T05:40:03.763Z,77.86
2023-01-29T05:42:30.670Z,77.50
2023-01-29T05:44:57.024Z,77.69
2023-01-29T05:47:23.519Z,77.26
2023-01-29T05:49:49.840Z,77.39
2023-01-29T05:52:16.260Z,78.10
2023-01-29T05:54:42.748Z,77.17
2023-01-29T05:57:09.134Z,77.50
2023-01-29T05:59:35.453Z,77.06
2023-01-29T06:02:01.921Z,77.38
2023-01-29T06:04:28.362Z,77.32
2023-01-29T06:06:54.947Z,77.51
2023-01-29T06:09:21.276Z,77.35
2023-01-29T06:11:47.661Z,77.51
2023-01-29T06:14:13.994Z,77.14
2023-01-29T06:16:40.420Z,77.13
2023-01-29T06:19:07.088Z,77.26
2023-01-29T06:21:33.543Z,76.66
2023-01-29T06:24:00.022Z,77.09
2023-01-29T06:26:26.478Z,76.74
2023-01-29T06:28:52.888Z,76.66
2023-01-29T06:31:36.913Z,76.96
2023-01-29T06:34:04.695Z,76.43
2023-01-29T06:36:31.105Z,76.92
2023-01-29T06:38:57.514Z,76.90
2023-01-29T06:41:25.356Z,76.33
2023-01-29T06:43:52.032Z,76.08
2023-01-29T06:46:18.387Z,76.12
2023-01-29T06:48:44.731Z,76.42
2023-01-29T06:51:11.772Z,76.42
2023-01-29T06:53:39.334Z,76.51
2023-01-29T06:56:06.531Z,76.35
2023-01-29T06:58:33.115Z,76.29
2023-01-29T07:01:15.531Z,76.15
2023-01-29T07:03:51.817Z,75.91
2023-01-29T07:06:18.668Z,76.73
2023-01-29T07:08:45.520Z,76.74
2023-01-29T07:11:12.577Z,76.12
2023-01-29T07:13:39.037Z,76.27
2023-01-29T07:16:06.707Z,76.35
2023-01-29T07:18:33.281Z,76.14
2023-01-29T07:21:04.463Z,76.60
2023-01-29T07:23:30.828Z,76.56
2023-01-29T07:26:01.126Z,76.10
2023-01-29T07:28:27.539Z,76.72
2023-01-29T07:30:58.622Z,76.38
2023-01-29T07:33:25.404Z,76.47
2023-01-29T07:35:52.236Z,76.40
2023-01-29T07:38:18.731Z,76.53
2023-01-29T07:40:45.184Z,76.71
2023-01-29T07:43:11.662Z,76.10
2023-01-29T07:45:39.892Z,76.50
2023-01-29T07:48:09.738Z,76.25
2023-01-29T07:50:36.627Z,77.12
2023-01-29T07:53:03.620Z,76.79
2023-01-29T07:55:31.047Z,76.79
2023-01-29T07:57:59.395Z,76.75
2023-01-29T08:00:26.018Z,76.68
2023-01-29T08:02:52.759Z,76.81
2023-01-29T08:05:20.110Z,76.06
2023-01-29T08:07:51.558Z,76.56
2023-01-29T08:10:27.820Z,76.43
2023-01-29T08:12:59.261Z,76.53
2023-01-29T08:15:26.240Z,76.38
2023-01-29T08:20:39.985Z,76.13
2023-01-29T08:23:10.140Z,76.38
2023-01-29T08:25:36.640Z,76.30
2023-01-29T08:28:04.516Z,75.94
2023-01-29T08:30:32.832Z,75.70
2023-01-29T08:32:59.214Z,75.57
2023-01-29T08:35:26.330Z,75.64
2023-01-29T08:38:03.573Z,75.43
2023-01-29T08:40:32.230Z,75.47
2023-01-29T08:43:04.548Z,75.62
2023-01-29T08:45:34.052Z,75.85
2023-01-29T08:48:00.506Z,76.17
2023-01-29T08:50:26.999Z,75.88
2023-01-29T08:52:59.075Z,75.89
2023-01-29T08:55:26.161Z,75.92
2023-01-29T08:57:52.538Z,76.17
2023-01-29T09:00:19.542Z,75.84
2023-01-29T09:02:46.025Z,75.84
2023-01-29T09:05:12.409Z,76.08
2023-01-29T09:07:38.779Z,75.97
2023-01-29T09:10:05.748Z,75.68
2023-01-29T09:12:32.103Z,76.02
2023-01-29T09:14:58.444Z,75.97
2023-01-29T09:17:24.761Z,75.93
2023-01-29T09:19:52.944Z,75.90
2023-01-29T09:22:20.270Z,75.37
2023-01-29T09:24:46.672Z,75.34
2023-01-29T09:27:13.562Z,75.80
2023-01-29T09:29:39.998Z,74.96
2023-01-29T09:32:06.924Z,75.29
2023-01-29T09:34:33.665Z,75.49
2023-01-29T09:37:00.189Z,75.76
2023-01-29T09:39:26.564Z,75.48
2023-01-29T09:42:01.878Z,75.24
2023-01-29T09:44:40.463Z,75.96
2023-01-29T09:47:12.763Z,75.68
2023-01-29T09:49:47.867Z,75.56
2023-01-29T09:52:55.764Z,75.28
2023-01-29T09:55:28.554Z,75.71
2023-01-29T09:57:59.279Z,75.22
2023-01-29T10:00:30.565Z,75.54
2023-01-29T10:03:21.057Z,75.49
2023-01-29T10:05:56.457Z,75.36
2023-01-29T10:08:46.718Z,75.32
2023-01-29T10:11:26.459Z,75.53
2023-01-29T10:14:14.524Z,76.04
2023-01-29T10:17:06.959Z,76.23
2023-01-29T10:19:42.463Z,75.60
2023-01-29T10:22:43.425Z,75.85
2023-01-29T10:25:19.666Z,75.60
2023-01-29T10:27:53.149Z,75.63
2023-01-29T10:30:47.423Z,75.94
2023-01-29T10:33:49.481Z,75.95
2023-01-29T10:36:34.044Z,76.20
2023-01-29T10:39:00.540Z,75.43
2023-01-29T10:41:40.959Z,76.22
2023-01-29T10:44:36.391Z,76.14
2023-01-29T10:47:29.258Z,76.24
2023-01-29T10:50:15.297Z,75.98
2023-01-29T10:53:18.724Z,75.78
2023-01-29T10:56:23.584Z,75.62
2023-01-29T10:59:05.294Z,75.34
2023-01-29T11:01:31.837Z,76.02
2023-01-29T11:04:03.613Z,75.60
2023-01-29T11:06:32.844Z,75.74
2023-01-29T11:09:33.157Z,76.31
2023-01-29T11:12:10.518Z,76.39
2023-01-29T11:14:47.962Z,75.91
2023-01-29T11:17:16.807Z,75.78
2023-01-29T11:19:46.137Z,76.26
2023-01-29T11:22:13.733Z,75.98
2023-01-29T11:24:40.128Z,75.99
2023-01-29T11:27:33.589Z,75.93
2023-01-29T11:30:00.143Z,76.15
2023-01-29T11:32:30.457Z,76.09
2023-01-29T11:34:56.762Z,76.32
2023-01-29T11:37:23.705Z,76.20
2023-01-29T11:39:50.573Z,76.29
2023-01-29T11:42:22.396Z,76.09
2023-01-29T11:44:49.393Z,76.48
2023-01-29T11:47:26.908Z,76.17
2023-01-29T11:50:00.900Z,76.58
2023-01-29T11:52:36.043Z,76.51
2023-01-29T11:55:07.095Z,76.79
2023-01-29T11:57:38.724Z,76.37
2023-01-29T12:00:17.836Z,77.01
2023-01-29T12:03:10.488Z,76.50
2023-01-29T12:05:39.201Z,77.05
2023-01-29T12:08:17.061Z,77.45
2023-01-29T12:10:44.367Z,77.11
2023-01-29T12:13:10.870Z,77.17
2023-01-29T12:15:41.945Z,77.76
2023-01-29T12:18:29.987Z,77.53
2023-01-29T12:21:03.365Z,77.56
2023-01-29T12:23:41.683Z,77.75
2023-01-29T12:26:15.932Z,77.65
2023-01-29T12:28:54.679Z,77.89
2023-01-29T12:31:32.607Z,77.96
2023-01-29T12:34:25.160Z,78.01
2023-01-29T12:37:15.164Z,77.68
2023-01-29T12:39:41.644Z,78.19
2023-01-29T12:42:22.933Z,78.08
2023-01-29T12:44:57.612Z,78.19
2023-01-29T12:47:47.129Z,78.34
2023-01-29T12:50:28.272Z,78.42
2023-01-29T12:53:05.074Z,77.87
2023-01-29T12:55:38.145Z,78.34
2023-01-29T12:58:12.686Z,78.19
2023-01-29T13:00:43.399Z,78.60
2023-01-29T13:03:27.560Z,78.41
2023-01-29T13:06:17.151Z,77.83
2023-01-29T13:08:53.762Z,78.11
2023-01-29T13:11:31.484Z,78.13
2023-01-29T13:14:07.973Z,78.53
2023-01-29T13:16:40.586Z,78.33
2023-01-29T13:19:21.056Z,78.89
2023-01-29T13:21:48.602Z,78.31
2023-01-29T13:24:18.445Z,78.90
2023-01-29T13:26:46.919Z,78.41
2023-01-29T13:29:31.752Z,78.59
2023-01-29T13:32:00.676Z,79.03
2023-01-29T13:34:31.689Z,78.75
2023-01-29T13:37:01.475Z,78.82
2023-01-29T13:39:35.158Z,78.46
2023-01-29T13:42:14.907Z,78.97
2023-01-29T13:44:41.525Z,79.05
2023-01-29T13:47:12.152Z,78.60
2023-01-29T13:49:53.390Z,78.59
2023-01-29T13:52:40.972Z,78.96
2023-01-29T13:55:22.329Z,78.90
2023-01-29T13:57:52.310Z,78.53
2023-01-29T14:00:20.309Z,78.63
2023-01-29T14:02:55.778Z,79.12
2023-01-29T14:05:31.492Z,78.71
2023-01-29T14:07:59.347Z,79.03
2023-01-29T14:10:30.776Z,78.98
2023-01-29T14:13:03.070Z,79.03
2023-01-29T14:15:34.651Z,79.26
2023-01-29T14:18:24.970Z,79.25
2023-01-29T14:21:00.231Z,79.09
2023-01-29T14:23:41.972Z,79.14
2023-01-29T14:26:43.759Z,79.58
2023-01-29T14:29:18.798Z,79.67
2023-01-29T14:32:06.228Z,79.22
2023-01-29T14:34:49.373Z,79.70
2023-01-29T14:37:15.680Z,79.38
2023-01-29T14:39:45.099Z,79.40
2023-01-29T14:42:25.843Z,79.56
2023-01-29T14:45:00.165Z,79.73
2023-01-29T14:47:32.631Z,79.65
2023-01-29T14:50:01.897Z,79.48
2023-01-29T14:52:50.513Z,79.65
2023-01-29T14:55:30.947Z,79.75
2023-01-29T14:57:58.412Z,79.72
2023-01-29T15:00:29.141Z,79.87
2023-01-29T15:03:02.332Z,79.51
2023-01-29T15:05:37.466Z,79.71
2023-01-29T15:08:13.669Z,79.59
2023-01-29T15:11:10.724Z,79.71
2023-01-29T15:13:47.837Z,79.71
2023-01-29T15:16:24.187Z,79.29
2023-01-29T15:18:54.936Z,79.45
2023-01-29T15:21:21.443Z,79.74
2023-01-29T15:23:48.713Z,79.47
2023-01-29T15:26:24.779Z,79.51
2023-01-29T15:29:05.046Z,79.85
2023-01-29T15:31:32.234Z,79.51
2023-01-29T15:34:04.752Z,79.46
2023-01-29T15:36:32.036Z,79.42
2023-01-29T15:39:17.155Z,79.49
2023-01-29T15:41:44.700Z,79.61
2023-01-29T15:44:22.592Z,79.70
2023-01-29T15:46:57.109Z,79.71
2023-01-29T15:49:37.975Z,79.70
2023-01-29T15:52:08.195Z,79.81
2023-01-29T15:54:35.970Z,79.64
2023-01-29T15:57:03.517Z,80.02
2023-01-29T15:59:34.621Z,79.95
2023-01-29T16:02:35.294Z,79.64
2023-01-29T16:05:02.520Z,80.08
2023-01-29T16:07:29.975Z,80.37
2023-01-29T16:09:57.402Z,80.11
2023-01-29T16:12:24.421Z,80.38
2023-01-29T16:14:51.535Z,80.28
2023-01-29T16:17:30.574Z,80.67
2023-01-29T16:19:59.218Z,80.92
2023-01-29T16:22:30.525Z,81.36
2023-01-29T16:25:02.020Z,82.05
2023-01-29T16:27:30.917Z,81.65
2023-01-29T16:29:57.691Z,81.71
2023-01-29T16:32:24.284Z,81.91
2023-01-29T16:34:57.516Z,81.92
2023-01-29T16:37:30.505Z,81.67
2023-01-29T16:39:57.580Z,81.71
2023-01-29T16:42:31.390Z,82.16
2023-01-29T16:45:06.050Z,82.56
2023-01-29T16:47:41.510Z,82.60
2023-01-29T16:50:54.896Z,83.31
2023-01-29T16:53:24.443Z,83.01
2023-01-29T16:55:52.319Z,83.03
2023-01-29T16:58:28.136Z,83.64
2023-01-29T17:01:03.560Z,83.32
2023-01-29T17:03:33.225Z,83.43
2023-01-29T17:06:09.068Z,84.18
2023-01-29T17:08:36.070Z,83.92
2023-01-29T17:11:03.076Z,84.38
2023-01-29T17:13:42.667Z,83.90
2023-01-29T17:16:28.034Z,84.11
2023-01-29T17:18:54.801Z,84.07
2023-01-29T17:21:21.331Z,83.64
2023-01-29T17:23:47.746Z,83.84
2023-01-29T17:26:15.060Z,84.18
2023-01-29T17:28:41.937Z,83.57
2023-01-29T17:31:08.847Z,83.57
2023-01-29T17:33:42.299Z,83.46
2023-01-29T17:36:14.266Z,83.14
2023-01-29T17:38:41.133Z,83.01
2023-01-29T17:41:11.548Z,83.17
2023-01-29T17:43:38.010Z,83.14
2023-01-29T17:46:04.829Z,83.19
2023-01-29T17:48:31.811Z,83.00
2023-01-29T17:51:03.669Z,82.71
2023-01-29T17:53:44.556Z,82.57
2023-01-29T17:56:23.542Z,82.52
2023-01-29T17:58:49.992Z,82.36
2023-01-29T18:01:16.470Z,82.24
2023-01-29T18:03:42.927Z,82.25
2023-01-29T18:06:12.500Z,81.99
2023-01-29T18:08:39.705Z,82.23
2023-01-29T18:11:06.289Z,81.77
2023-01-29T18:13:32.915Z,81.71
2023-01-29T18:15:59.426Z,81.84
2023-01-29T18:18:25.863Z,82.22
2023-01-29T18:20:52.340Z,81.85
2023-01-29T18:23:18.809Z,81.69
2023-01-29T18:25:45.350Z,82.01
2023-01-29T18:28:17.150Z,82.19
2023-01-29T18:30:47.007Z,82.17
2023-01-29T18:33:14.293Z,82.17
2023-01-29T18:35:40.768Z,81.95
2023-01-29T18:38:07.155Z,82.34
2023-01-29T18:40:33.621Z,82.41
2023-01-29T18:43:00.878Z,82.00
2023-01-29T18:45:28.678Z,82.33
2023-01-29T18:47:55.424Z,82.17
2023-01-29T18:50:26.198Z,82.10
2023-01-29T18:52:55.793Z,82.22
2023-01-29T18:55:23.388Z,82.06
2023-01-29T18:58:25.851Z,82.38
2023-01-29T19:00:40.346Z,82.43
2023-01-29T19:03:06.811Z,82.57
2023-01-29T19:05:34.003Z,82.45
2023-01-29T19:08:00.899Z,82.77
2023-01-29T19:10:27.377Z,82.46
2023-01-29T19:12:53.771Z,82.77
2023-01-29T19:15:21.940Z,82.54
2023-01-29T19:17:49.568Z,82.69
2023-01-29T19:20:16.049Z,82.82
2023-01-29T19:22:42.438Z,82.60
2023-01-29T19:25:09.408Z,82.97
2023-01-29T19:27:35.856Z,82.90
2023-01-29T19:30:05.416Z,82.99
2023-01-29T19:32:32.320Z,82.69
2023-01-29T19:34:58.795Z,83.14
2023-01-29T19:37:25.469Z,82.75
2023-01-29T19:39:52.020Z,82.97
2023-01-29T19:42:20.305Z,82.90
2023-01-29T19:44:46.690Z,83.36
2023-01-29T19:47:13.204Z,83.46
2023-01-29T19:49:40.496Z,83.32
2023-01-29T19:52:14.655Z,83.34
2023-01-29T19:54:46.119Z,83.34
2023-01-29T19:57:12.536Z,83.60
2023-01-29T19:59:38.997Z,84.00
2023-01-29T20:02:05.510Z,83.69
2023-01-29T20:04:32.284Z,83.90
2023-01-29T20:06:59.417Z,83.66
2023-01-29T20:09:25.925Z,83.75
2023-01-29T20:11:52.440Z,84.18
2023-01-29T20:14:18.890Z,83.88
2023-01-29T20:16:45.302Z,83.82
2023-01-29T20:19:13.667Z,84.00
2023-01-29T20:21:41.765Z,84.40
2023-01-29T20:24:12.155Z,84.29
2023-01-29T20:26:38.952Z,84.33
2023-01-29T20:29:06.387Z,83.96
2023-01-29T20:31:33.611Z,84.63
2023-01-29T20:34:00.238Z,84.85
2023-01-29T20:36:26.723Z,84.68
2023-01-29T20:38:53.145Z,84.55
2023-01-29T20:41:19.636Z,84.63
2023-01-29T20:43:47.140Z,84.91
2023-01-29T20:46:13.861Z,84.55
2023-01-29T20:48:41.896Z,85.15
2023-01-29T20:51:15.533Z,84.99
2023-01-29T20:53:45.033Z,85.11
2023-01-29T20:56:12.125Z,85.14
2023-01-29T20:58:40.763Z,85.40
2023-01-29T21:01:09.378Z,85.64
2023-01-29T21:03:35.812Z,85.98
2023-01-29T21:06:02.273Z,85.88
2023-01-29T21:08:28.699Z,85.68
2023-01-29T21:10:55.058Z,86.25
2023-01-29T21:13:21.550Z,86.30
2023-01-29T21:15:50.943Z,86.42
2023-01-29T21:18:17.543Z,86.34
2023-01-29T21:20:44.483Z,86.69
2023-01-29T21:23:11.138Z,86.71
2023-01-29T21:25:38.613Z,86.57
2023-01-29T21:28:06.054Z,87.23
2023-01-29T21:30:32.930Z,87.00
2023-01-29T21:32:59.639Z,87.51
2023-01-29T21:35:25.992Z,87.65
2023-01-29T21:37:52.396Z,87.65
2023-01-29T21:40:20.115Z,87.74
2023-01-29T21:43:05.764Z,88.34
2023-01-29T21:45:34.162Z,88.61
2023-01-29T21:48:01.367Z,88.56
2023-01-29T21:50:27.769Z,88.42
2023-01-29T21:52:54.142Z,88.72
2023-01-29T21:55:20.549Z,88.95
2023-01-29T21:57:47.030Z,89.08
2023-01-29T22:00:13.741Z,88.75
2023-01-29T22:02:40.399Z,89.37
2023-01-29T22:05:18.751Z,89.34
2023-01-29T22:07:45.640Z,89.20
2023-01-29T22:10:12.456Z,89.14
2023-01-29T22:12:39.736Z,89.50
2023-01-29T22:15:07.569Z,89.53
2023-01-29T22:17:34.252Z,89.83
2023-01-29T22:20:01.066Z,89.66
2023-01-29T22:22:27.602Z,89.83
2023-01-29T22:24:55.074Z,89.88
2023-01-29T22:27:21.501Z,89.80
2023-01-29T22:29:47.918Z,90.08
2023-01-29T22:32:14.417Z,90.01
2023-01-29T22:34:40.811Z,89.96
2023-01-29T22:37:07.461Z,90.17
2023-01-29T22:39:33.953Z,90.36
2023-01-29T22:42:00.413Z,90.50
2023-01-29T22:44:26.782Z,90.67
2023-01-29T22:46:53.174Z,90.64
2023-01-29T22:49:19.721Z,90.57
2023-01-29T22:51:47.145Z,90.71
2023-01-29T22:54:15.476Z,91.31
2023-01-29T22:56:41.881Z,91.03
2023-01-29T22:59:10.031Z,91.58
2023-01-29T23:01:36.465Z,91.67
2023-01-29T23:04:02.859Z,91.62
2023-01-29T23:06:29.228Z,91.68
2023-01-29T23:08:55.680Z,92.08
2023-01-29T23:11:23.497Z,92.29
2023-01-29T23:13:52.644Z,92.24
2023-01-29T23:16:21.292Z,92.36
2023-01-29T23:18:53.040Z,92.15
2023-01-29T23:21:21.167Z,92.55
2023-01-29T23:23:47.519Z,92.76
2023-01-29T23:26:33.687Z,92.90
2023-01-29T23:29:00.378Z,92.71
2023-01-29T23:31:26.886Z,92.86
2023-01-29T23:33:53.296Z,92.92
2023-01-29T23:36:19.699Z,93.26
2023-01-29T23:38:46.242Z,93.41
2023-01-29T23:41:12.634Z,93.37
2023-01-29T23:43:39.012Z,93.54
2023-01-29T23:46:05.607Z,93.46
2023-01-29T23:48:31.991Z,93.69
2023-01-29T23:50:58.384Z,93.68
2023-01-29T23:53:24.806Z,93.88
2023-01-29T23:56:02.413Z,93.62
2023-01-29T23:58:29.829Z,94.14
